Raymond, Wyoming
Current Conditions -  °F | °C
As of 5:35 PM on Sunday 21 Dec 2014 (Local Time) from KEMM Reporting Station
Light Snow Light Snow  
Wind Chill: 20°   Ceiling: 1400
Heat Index: 34°   Visibility: 4mi
Dew Point: 32°   Wind: 31mph
Humidity: 93%   Direction: 280°W
Pressure: 29.81"   Gusts: 41mph
Location:  42.0387°N, 110.797°W
Report Text: KEMM 220035Z AUTO 28027G36KT 4SM -SN BKN014 OVC024 01/00 A2981 RMK AO2
Loading
Personal Weather Stations






























Interactive Weather Map New forecast layout! Learn more

10-Day Weather Forecast

Advertisements
Track Severe Weather on mobile